createdAt,value
2023-03-10T00:01:19.808Z,99066.69
2023-03-10T00:04:23.684Z,99066.22
2023-03-10T00:07:28.121Z,99058.06
2023-03-10T00:10:35.523Z,99062.78
2023-03-10T00:13:39.529Z,99066.56
2023-03-10T00:16:48.011Z,99061.38
2023-03-10T00:19:53.484Z,99059.97
2023-03-10T00:22:57.149Z,99049.84
2023-03-10T00:26:01.822Z,99064.06
2023-03-10T00:29:09.288Z,99064.91
2023-03-10T00:32:16.525Z,99053.59
2023-03-10T00:35:22.022Z,99053.00
2023-03-10T00:38:28.191Z,99055.91
2023-03-10T00:41:32.622Z,99047.97
2023-03-10T00:44:38.685Z,99042.44
2023-03-10T00:47:41.893Z,99036.88
2023-03-10T00:50:45.571Z,99035.34
2023-03-10T00:53:48.687Z,99024.97
2023-03-10T00:56:55.353Z,99027.53
2023-03-10T01:00:00.414Z,99016.78
2023-03-10T01:03:04.000Z,99012.78
2023-03-10T01:06:11.819Z,99013.72
2023-03-10T01:09:17.359Z,99014.19
2023-03-10T01:12:22.293Z,99010.37
2023-03-10T01:15:26.717Z,98999.75
2023-03-10T01:18:36.401Z,99004.94
2023-03-10T01:21:40.379Z,99001.38
2023-03-10T01:24:44.614Z,98996.31
2023-03-10T01:27:50.560Z,98994.94
2023-03-10T01:30:58.709Z,98995.97
2023-03-10T01:34:07.504Z,98990.75
2023-03-10T01:37:10.487Z,98995.44
2023-03-10T01:40:21.473Z,98992.38
2023-03-10T01:43:33.779Z,98978.94
2023-03-10T01:46:40.016Z,98981.16
2023-03-10T01:49:53.654Z,98975.31
2023-03-10T01:53:01.485Z,98979.31
2023-03-10T01:56:14.324Z,98979.47
2023-03-10T01:59:21.002Z,98972.53
2023-03-10T02:02:28.689Z,98969.06
2023-03-10T02:05:33.559Z,98956.91
2023-03-10T02:08:41.275Z,98956.19
2023-03-10T02:11:49.541Z,98961.59
2023-03-10T02:14:52.640Z,98949.22
2023-03-10T02:17:55.988Z,98941.44
2023-03-10T02:21:21.060Z,98941.69
2023-03-10T02:24:27.341Z,98933.75
2023-03-10T02:27:34.295Z,98930.88
2023-03-10T02:30:39.086Z,98928.00
2023-03-10T02:33:43.766Z,98929.97
2023-03-10T02:36:58.231Z,98931.12
2023-03-10T02:40:02.853Z,98927.72
2023-03-10T02:43:15.178Z,98918.44
2023-03-10T02:46:23.474Z,98910.69
2023-03-10T02:49:28.224Z,98914.28
2023-03-10T02:52:36.623Z,98910.00
2023-03-10T02:55:39.425Z,98917.91
2023-03-10T02:58:42.503Z,98908.69
2023-03-10T03:01:45.425Z,98915.34
2023-03-10T03:04:48.385Z,98908.94
2023-03-10T03:07:52.090Z,98911.03
2023-03-10T03:10:56.208Z,98904.78
2023-03-10T03:14:00.137Z,98902.28
2023-03-10T03:17:04.597Z,98896.31
2023-03-10T03:20:20.845Z,98878.66
2023-03-10T03:23:24.963Z,98878.88
2023-03-10T03:26:31.099Z,98870.63
2023-03-10T03:29:36.240Z,98869.31
2023-03-10T03:32:40.762Z,98864.53
2023-03-10T03:35:47.379Z,98864.03
2023-03-10T03:38:51.710Z,98861.28
2023-03-10T03:42:00.837Z,98851.13
2023-03-10T03:45:05.168Z,98849.25
2023-03-10T03:48:09.287Z,98845.13
2023-03-10T03:51:15.853Z,98841.22
2023-03-10T03:54:31.231Z,98836.38
2023-03-10T03:57:34.738Z,98832.06
2023-03-10T04:00:39.792Z,98827.00
2023-03-10T04:03:43.519Z,98816.75
2023-03-10T04:06:50.670Z,98812.03
2023-03-10T04:09:55.811Z,98806.88
2023-03-10T04:13:01.366Z,98802.75
2023-03-10T04:16:16.758Z,98802.22
2023-03-10T04:19:28.853Z,98803.19
2023-03-10T04:22:42.087Z,98800.91
2023-03-10T04:25:46.302Z,98798.53
2023-03-10T04:28:48.576Z,98794.31
2023-03-10T04:32:05.243Z,98781.50
2023-03-10T04:35:10.116Z,98779.97
2023-03-10T04:38:14.231Z,98787.78
2023-03-10T04:41:18.453Z,98791.69
2023-03-10T04:44:31.675Z,98775.72
2023-03-10T04:47:35.094Z,98772.94
2023-03-10T04:50:38.010Z,98782.13
2023-03-10T04:53:41.577Z,98772.41
2023-03-10T04:56:44.998Z,98771.25
2023-03-10T04:59:48.139Z,98771.47
2023-03-10T05:02:52.098Z,98772.78
2023-03-10T05:05:55.484Z,98772.69
2023-03-10T05:08:59.099Z,98774.47
2023-03-10T05:12:02.188Z,98776.69
2023-03-10T05:15:06.019Z,98761.88
2023-03-10T05:18:10.010Z,98755.12
2023-03-10T05:21:13.750Z,98744.28
2023-03-10T05:24:17.970Z,98740.16
2023-03-10T05:27:22.584Z,98744.16
2023-03-10T05:30:25.873Z,98738.44
2023-03-10T05:33:31.345Z,98738.72
2023-03-10T05:36:34.924Z,98729.72
2023-03-10T05:39:37.707Z,98729.84
2023-03-10T05:42:40.694Z,98729.28
2023-03-10T05:45:43.735Z,98720.94
2023-03-10T05:48:47.089Z,98725.66
2023-03-10T05:51:50.489Z,98715.00
2023-03-10T05:54:54.311Z,98714.88
2023-03-10T05:57:57.187Z,98712.78
2023-03-10T06:01:00.511Z,98710.63
2023-03-10T06:04:04.657Z,98708.81
2023-03-10T06:07:08.208Z,98702.97
2023-03-10T06:10:12.455Z,98698.84
2023-03-10T06:13:15.626Z,98705.19
2023-03-10T06:16:18.972Z,98712.16
2023-03-10T06:19:22.937Z,98714.91
2023-03-10T06:22:26.134Z,98716.78
2023-03-10T06:25:31.296Z,98713.47
2023-03-10T06:28:37.355Z,98723.16
2023-03-10T06:31:41.403Z,98723.16
2023-03-10T06:34:44.467Z,98729.41
2023-03-10T06:37:47.755Z,98710.91
2023-03-10T06:40:51.149Z,98706.78
2023-03-10T06:43:54.455Z,98716.75
2023-03-10T06:46:57.763Z,98717.28
2023-03-10T06:50:01.911Z,98722.19
2023-03-10T06:53:05.380Z,98714.44
2023-03-10T06:56:10.005Z,98710.97
2023-03-10T06:59:13.312Z,98705.56
2023-03-10T07:02:16.542Z,98700.66
2023-03-10T07:05:20.604Z,98701.69
2023-03-10T07:08:23.410Z,98696.69
2023-03-10T07:11:29.246Z,98702.12
2023-03-10T07:14:34.084Z,98688.34
2023-03-10T07:17:37.075Z,98695.72
2023-03-10T07:20:41.301Z,98698.88
2023-03-10T07:23:44.197Z,98704.75
2023-03-10T07:26:47.691Z,98705.50
2023-03-10T07:29:50.885Z,98697.53
2023-03-10T07:32:54.243Z,98694.66
2023-03-10T07:35:57.272Z,98700.09
2023-03-10T07:39:00.270Z,98701.84
2023-03-10T07:42:06.741Z,98705.69
2023-03-10T07:45:09.573Z,98704.03
2023-03-10T07:48:12.520Z,98705.56
2023-03-10T07:51:16.111Z,98700.91
2023-03-10T07:54:19.239Z,98693.06
2023-03-10T07:57:22.007Z,98688.81
2023-03-10T08:00:25.189Z,98685.69
2023-03-10T08:03:28.746Z,98672.59
2023-03-10T08:06:33.445Z,98671.09
2023-03-10T08:09:36.931Z,98680.44
2023-03-10T08:12:43.208Z,98680.31
2023-03-10T08:15:46.452Z,98674.75
2023-03-10T08:18:58.257Z,98662.97
2023-03-10T08:22:03.120Z,98652.31
2023-03-10T08:25:07.253Z,98647.00
2023-03-10T08:28:10.548Z,98645.28
2023-03-10T08:31:15.454Z,98639.31
2023-03-10T08:34:19.793Z,98632.44
2023-03-10T08:37:23.430Z,98645.19
2023-03-10T08:40:26.984Z,98637.09
2023-03-10T08:43:30.140Z,98634.13
2023-03-10T08:46:33.387Z,98628.56
2023-03-10T08:49:36.955Z,98617.66
2023-03-10T08:52:40.030Z,98614.59
2023-03-10T08:55:43.317Z,98612.81
2023-03-10T08:58:46.805Z,98608.09
2023-03-10T09:01:49.941Z,98601.03
2023-03-10T09:04:52.895Z,98603.44
2023-03-10T09:07:56.031Z,98600.75
2023-03-10T09:10:58.492Z,98608.06
2023-03-10T09:14:02.841Z,98604.34
2023-03-10T09:17:06.093Z,98606.66
2023-03-10T09:20:10.049Z,98607.75
2023-03-10T09:23:14.363Z,98604.41
2023-03-10T09:26:17.496Z,98604.53
2023-03-10T09:29:23.010Z,98592.56
2023-03-10T09:32:29.774Z,98585.56
2023-03-10T09:35:32.458Z,98582.16
2023-03-10T09:38:35.866Z,98581.81
2023-03-10T09:41:38.628Z,98580.59
2023-03-10T09:44:43.326Z,98565.56
2023-03-10T09:47:58.239Z,98575.34
2023-03-10T09:51:06.236Z,98562.22
2023-03-10T09:54:21.103Z,98561.09
2023-03-10T09:57:25.424Z,98551.91
2023-03-10T10:00:34.885Z,98555.44
2023-03-10T10:03:52.720Z,98553.56
2023-03-10T10:06:57.852Z,98538.91
2023-03-10T10:10:08.181Z,98535.56
2023-03-10T10:13:16.609Z,98520.69
2023-03-10T10:16:36.749Z,98517.84
2023-03-10T10:19:41.066Z,98511.75
2023-03-10T10:22:45.786Z,98501.84
2023-03-10T10:25:50.380Z,98494.47
2023-03-10T10:29:07.536Z,98487.62
2023-03-10T10:32:11.781Z,98482.16
2023-03-10T10:35:16.184Z,98470.78
2023-03-10T10:38:25.067Z,98468.75
2023-03-10T10:41:32.695Z,98473.44
2023-03-10T10:44:41.237Z,98479.91
2023-03-10T10:47:50.995Z,98461.53
2023-03-10T10:50:54.678Z,98463.09
2023-03-10T10:53:58.445Z,98459.91
2023-03-10T10:57:02.606Z,98457.81
2023-03-10T11:00:24.345Z,98454.34
2023-03-10T11:03:33.262Z,98449.06
2023-03-10T11:06:38.608Z,98443.38
2023-03-10T11:09:41.590Z,98431.59
2023-03-10T11:12:44.378Z,98429.38
2023-03-10T11:15:56.518Z,98408.28
2023-03-10T11:19:06.330Z,98407.66
2023-03-10T11:22:38.664Z,98401.37
2023-03-10T11:25:59.509Z,98401.56
2023-03-10T11:29:04.010Z,98390.59
2023-03-10T11:32:29.517Z,98387.94
2023-03-10T11:35:46.026Z,98385.53
2023-03-10T11:38:50.520Z,98379.44
2023-03-10T11:42:01.618Z,98357.53
2023-03-10T11:45:04.109Z,98361.38
2023-03-10T11:48:25.397Z,98348.41
2023-03-10T11:51:31.630Z,98345.75
2023-03-10T11:54:57.965Z,98335.34
2023-03-10T11:58:02.560Z,98331.87
2023-03-10T12:01:06.099Z,98322.56
2023-03-10T12:04:12.507Z,98317.50
2023-03-10T12:07:36.542Z,98310.81
2023-03-10T12:10:40.407Z,98305.16
2023-03-10T12:13:48.993Z,98301.28
2023-03-10T12:16:52.272Z,98293.13
2023-03-10T12:20:15.008Z,98290.31
2023-03-10T12:23:27.457Z,98292.72
2023-03-10T12:26:38.683Z,98276.50
2023-03-10T12:29:44.393Z,98278.50
2023-03-10T12:32:47.800Z,98264.72
2023-03-10T12:35:52.611Z,98252.78
2023-03-10T12:38:59.712Z,98249.13
2023-03-10T12:42:03.153Z,98235.59
2023-03-10T12:45:17.844Z,98235.38
2023-03-10T12:48:22.762Z,98226.63
2023-03-10T12:51:25.966Z,98227.84
2023-03-10T12:54:28.442Z,98225.84
2023-03-10T12:57:31.390Z,98218.94
2023-03-10T13:00:40.921Z,98216.09
2023-03-10T13:03:46.696Z,98207.19
2023-03-10T13:06:49.525Z,98195.19
2023-03-10T13:09:52.764Z,98201.19
2023-03-10T13:12:57.129Z,98202.34
2023-03-10T13:16:01.613Z,98193.38
2023-03-10T13:19:04.259Z,98185.09
2023-03-10T13:22:07.047Z,98184.91
2023-03-10T13:25:14.455Z,98182.59
2023-03-10T13:28:17.156Z,98182.22
2023-03-10T13:31:21.823Z,98181.53
2023-03-10T13:34:28.237Z,98179.19
2023-03-10T13:37:30.634Z,98175.94
2023-03-10T13:40:33.916Z,98171.41
2023-03-10T13:43:38.004Z,98157.69
2023-03-10T13:46:46.329Z,98155.22
2023-03-10T13:49:54.811Z,98150.91
2023-03-10T13:52:59.932Z,98155.19
2023-03-10T13:56:10.477Z,98155.22
2023-03-10T13:59:19.702Z,98151.78
2023-03-10T14:02:33.294Z,98142.28
2023-03-10T14:05:38.485Z,98148.22
2023-03-10T14:08:41.306Z,98141.75
2023-03-10T14:11:45.333Z,98148.03
2023-03-10T14:14:49.611Z,98135.06
2023-03-10T14:18:13.617Z,98127.75
2023-03-10T14:21:32.784Z,98128.09
2023-03-10T14:24:35.638Z,98129.34
2023-03-10T14:27:41.746Z,98129.16
2023-03-10T14:30:45.646Z,98126.34
2023-03-10T14:33:48.803Z,98123.28
2023-03-10T14:36:51.516Z,98121.00
2023-03-10T14:39:54.204Z,98118.81
2023-03-10T14:42:59.758Z,98113.53
2023-03-10T14:46:02.331Z,98117.38
2023-03-10T14:49:07.377Z,98114.72
2023-03-10T14:52:13.133Z,98108.81
2023-03-10T14:55:15.816Z,98102.94
2023-03-10T14:58:22.975Z,98093.00
2023-03-10T15:01:25.556Z,98088.28
2023-03-10T15:04:28.407Z,98087.09
2023-03-10T15:07:31.165Z,98088.28
2023-03-10T15:10:38.230Z,98090.31
2023-03-10T15:13:41.137Z,98076.12
2023-03-10T15:16:44.520Z,98072.28
2023-03-10T15:19:47.634Z,98079.56
2023-03-10T15:22:50.731Z,98069.62
2023-03-10T15:25:53.513Z,98081.56
2023-03-10T15:28:55.886Z,98082.13
2023-03-10T15:32:02.046Z,98073.63
2023-03-10T15:35:05.149Z,98081.03
2023-03-10T15:38:07.701Z,98089.31
2023-03-10T15:41:10.374Z,98079.94
2023-03-10T15:44:13.195Z,98075.03
2023-03-10T15:47:16.051Z,98067.09
2023-03-10T15:50:24.601Z,98080.81
2023-03-10T15:53:27.187Z,98069.25
2023-03-10T15:56:30.792Z,98075.47
2023-03-10T15:59:37.774Z,98074.25
2023-03-10T16:02:41.074Z,98072.44
2023-03-10T16:05:48.750Z,98071.22
2023-03-10T16:08:51.732Z,98065.09
2023-03-10T16:11:54.857Z,98051.75
2023-03-10T16:14:58.051Z,98057.53
2023-03-10T16:18:01.151Z,98043.19
2023-03-10T16:21:04.433Z,98054.62
2023-03-10T16:24:07.627Z,98046.69
2023-03-10T16:27:10.564Z,98050.09
2023-03-10T16:30:14.785Z,98049.28
2023-03-10T16:33:17.939Z,98050.59
2023-03-10T16:36:22.468Z,98055.59
2023-03-10T16:39:26.274Z,98057.34
2023-03-10T16:42:29.030Z,98066.50
2023-03-10T16:45:31.874Z,98070.41
2023-03-10T16:48:36.574Z,98070.66
2023-03-10T16:51:40.637Z,98070.28
2023-03-10T16:54:46.408Z,98068.03
2023-03-10T16:57:50.143Z,98083.06
2023-03-10T17:00:53.362Z,98080.72
2023-03-10T17:03:56.779Z,98091.56
2023-03-10T17:06:59.744Z,98092.47
2023-03-10T17:10:02.869Z,98103.69
2023-03-10T17:13:06.544Z,98101.88
2023-03-10T17:16:15.379Z,98105.31
2023-03-10T17:19:19.652Z,98108.38
2023-03-10T17:22:22.027Z,98102.16
2023-03-10T17:25:25.994Z,98110.37
2023-03-10T17:28:29.183Z,98106.41
2023-03-10T17:31:32.887Z,98105.41
2023-03-10T17:34:35.780Z,98100.44
2023-03-10T17:37:39.359Z,98107.66
2023-03-10T17:40:43.605Z,98100.69
2023-03-10T17:43:46.415Z,98098.97
2023-03-10T17:46:51.028Z,98099.91
2023-03-10T17:49:55.748Z,98089.34
2023-03-10T17:52:58.837Z,98090.50
2023-03-10T17:56:05.835Z,98090.31
2023-03-10T17:59:09.522Z,98092.75
2023-03-10T18:02:15.422Z,98089.78
2023-03-10T18:05:18.489Z,98088.97
2023-03-10T18:08:21.583Z,98091.75
2023-03-10T18:11:25.324Z,98082.09
2023-03-10T18:14:28.569Z,98090.16
2023-03-10T18:17:31.321Z,98086.53
2023-03-10T18:20:35.274Z,98082.91
2023-03-10T18:23:37.539Z,98091.97
2023-03-10T18:26:43.941Z,98112.91
2023-03-10T18:29:46.803Z,98121.47
2023-03-10T18:32:49.582Z,98123.72
2023-03-10T18:35:52.502Z,98128.06
2023-03-10T18:38:55.704Z,98134.75
2023-03-10T18:41:58.380Z,98130.16
2023-03-10T18:45:01.454Z,98118.28
2023-03-10T18:48:03.738Z,98124.53
2023-03-10T18:51:06.319Z,98115.00
2023-03-10T18:54:08.914Z,98119.97
2023-03-10T18:57:10.986Z,98116.09
2023-03-10T19:00:14.901Z,98116.00
2023-03-10T19:03:17.725Z,98118.97
2023-03-10T19:06:19.947Z,98127.28
2023-03-10T19:09:22.714Z,98126.66
2023-03-10T19:12:25.030Z,98119.78
2023-03-10T19:15:27.023Z,98121.59
2023-03-10T19:18:28.918Z,98133.81
2023-03-10T19:21:30.876Z,98138.56
2023-03-10T19:24:32.952Z,98133.69
2023-03-10T19:27:39.747Z,98143.94
2023-03-10T19:30:43.039Z,98131.69
2023-03-10T19:33:45.444Z,98124.19
2023-03-10T19:36:47.303Z,98121.59
2023-03-10T19:39:49.633Z,98098.59
2023-03-10T19:42:51.589Z,98093.56
2023-03-10T19:46:03.772Z,98096.47
2023-03-10T19:49:06.950Z,98102.03
2023-03-10T19:52:08.964Z,98103.00
2023-03-10T19:55:14.154Z,98103.81
2023-03-10T19:58:15.989Z,98110.81
2023-03-10T20:01:25.099Z,98116.69
2023-03-10T20:04:27.043Z,98108.41
2023-03-10T20:07:28.974Z,98112.31
2023-03-10T20:10:30.872Z,98113.44
2023-03-10T20:13:33.473Z,98114.09
2023-03-10T20:16:35.753Z,98118.66
2023-03-10T20:19:37.746Z,98105.81
2023-03-10T20:22:40.508Z,98112.00
2023-03-10T20:25:42.677Z,98115.09
2023-03-10T20:28:45.022Z,98112.28
2023-03-10T20:31:46.999Z,98108.91
2023-03-10T20:34:49.036Z,98096.37
2023-03-10T20:37:51.044Z,98081.53
2023-03-10T20:40:52.935Z,98077.63
2023-03-10T20:43:55.445Z,98066.69
2023-03-10T20:46:57.638Z,98054.00
2023-03-10T20:50:00.164Z,98037.53
2023-03-10T20:53:02.507Z,98006.41
2023-03-10T20:56:11.323Z,98010.81
2023-03-10T20:59:13.383Z,98017.84
2023-03-10T21:02:16.119Z,98026.63
2023-03-10T21:05:18.450Z,98037.03
2023-03-10T21:08:20.488Z,98037.56
2023-03-10T21:11:22.556Z,98036.75
2023-03-10T21:14:24.705Z,98037.03
2023-03-10T21:17:27.937Z,98039.34
2023-03-10T21:20:29.967Z,98044.38
2023-03-10T21:23:31.828Z,98052.88
2023-03-10T21:26:34.045Z,98048.47
2023-03-10T21:29:36.795Z,98049.28
2023-03-10T21:32:38.763Z,98050.91
2023-03-10T21:35:41.215Z,98057.44
2023-03-10T21:38:43.793Z,98052.38
2023-03-10T21:41:45.924Z,98063.13
2023-03-10T21:44:48.816Z,98060.03
2023-03-10T21:47:50.984Z,98058.88
2023-03-10T21:50:53.022Z,98065.72
2023-03-10T21:53:55.365Z,98070.44
2023-03-10T21:56:59.710Z,98067.66
2023-03-10T22:00:02.019Z,98070.47
2023-03-10T22:03:05.333Z,98075.00
2023-03-10T22:06:07.593Z,98066.38
2023-03-10T22:09:09.819Z,98076.00
2023-03-10T22:12:13.220Z,98076.47
2023-03-10T22:15:18.155Z,98071.44
2023-03-10T22:18:20.462Z,98078.78
2023-03-10T22:21:22.807Z,98079.72
2023-03-10T22:24:25.144Z,98082.19
2023-03-10T22:27:27.850Z,98072.91
2023-03-10T22:30:32.068Z,98063.13
2023-03-10T22:33:34.616Z,98061.00
2023-03-10T22:36:36.894Z,98063.28
2023-03-10T22:39:39.715Z,98063.94
2023-03-10T22:42:42.296Z,98062.31
2023-03-10T22:45:44.673Z,98064.25
2023-03-10T22:48:47.424Z,98063.09
2023-03-10T22:51:50.033Z,98060.00
2023-03-10T22:54:52.469Z,98052.19
2023-03-10T22:57:57.212Z,98061.50
2023-03-10T23:01:00.444Z,98065.72
2023-03-10T23:04:04.116Z,98077.12
2023-03-10T23:07:08.274Z,98079.25
2023-03-10T23:10:15.019Z,98078.56
2023-03-10T23:13:18.573Z,98081.69
2023-03-10T23:16:21.530Z,98076.31
2023-03-10T23:19:25.305Z,98074.34
2023-03-10T23:22:28.615Z,98075.31
2023-03-10T23:25:33.282Z,98084.78
2023-03-10T23:28:40.749Z,98080.87
2023-03-10T23:31:43.935Z,98084.91
2023-03-10T23:34:47.548Z,98103.84
2023-03-10T23:37:50.930Z,98103.03
2023-03-10T23:40:54.096Z,98098.78
2023-03-10T23:43:56.861Z,98097.84
2023-03-10T23:46:59.902Z,98092.44
2023-03-10T23:50:03.625Z,98092.28
2023-03-10T23:53:10.514Z,98106.94
2023-03-10T23:56:13.915Z,98107.94
2023-03-10T23:59:17.085Z,98098.81
